Time;durP1;ratioP1;P1;durP2;ratioP2;P2;SDS_P1;SDS_P2;PMS_P1;PMS_P2;Temp;Humidity;BMP_temperature;BMP_pressure;BME280_temperature;BME280_humidity;BME280_pressure;Samples;Min_cycle;Max_cycle;Signal;HPM_P1;HPM_P2
2022/08/25 00:02:21;;;;;;;10.37;9.20;;;21.10;1.00;;;;;;5034494;28;20465;-82
2022/08/25 00:04:50;;;;;;;11.30;7.83;;;21.00;1.00;;;;;;5033868;28;20485;-82
2022/08/25 00:07:20;;;;;;;11.67;8.57;;;21.00;1.00;;;;;;5034394;28;20462;-82
2022/08/25 00:09:49;;;;;;;11.13;9.07;;;21.10;1.00;;;;;;5034923;28;20496;-82
2022/08/25 00:12:21;;;;;;;9.93;8.80;;;21.10;1.00;;;;;;5036607;28;20417;-82
2022/08/25 00:14:50;;;;;;;11.30;9.57;;;21.00;1.00;;;;;;5034705;28;20477;-82
2022/08/25 00:17:31;;;;;;;9.67;8.70;;;21.00;1.00;;;;;;5041127;28;20437;-82
2022/08/25 00:19:59;;;;;;;10.43;8.87;;;21.00;1.00;;;;;;5043127;28;20483;-82
2022/08/25 00:22:50;;;;;;;12.50;8.53;;;21.00;1.00;;;;;;5043916;28;20539;-83
2022/08/25 00:25:27;;;;;;;9.73;8.40;;;20.90;1.00;;;;;;5049298;28;20504;-82
2022/08/25 00:27:57;;;;;;;10.17;9.07;;;20.90;1.00;;;;;;5046135;28;20499;-81
2022/08/25 00:30:31;;;;;;;10.80;9.70;;;20.90;1.00;;;;;;5044037;28;20550;-81
2022/08/25 00:33:01;;;;;;;9.90;8.80;;;20.90;1.00;;;;;;5026909;28;21279;-81
2022/08/25 00:35:29;;;;;;;11.87;8.60;;;20.80;1.00;;;;;;5043484;28;20476;-81
2022/08/25 00:37:59;;;;;;;9.17;8.20;;;20.80;1.00;;;;;;5040115;28;21355;-81
2022/08/25 00:40:29;;;;;;;10.57;9.57;;;20.80;1.00;;;;;;5039729;28;20453;-81
2022/08/25 00:43:00;;;;;;;10.07;8.97;;;20.80;1.00;;;;;;5035920;28;20531;-81
2022/08/25 00:45:40;;;;;;;10.67;9.57;;;20.80;1.00;;;;;;5039494;28;20461;-81
2022/08/25 00:48:19;;;;;;;10.83;8.60;;;20.80;1.00;;;;;;5037636;28;20425;-81
2022/08/25 00:50:47;;;;;;;10.63;9.53;;;20.80;1.00;;;;;;5039817;28;20441;-82
2022/08/25 00:53:20;;;;;;;11.07;10.07;;;20.70;1.00;;;;;;5038952;28;20445;-82
2022/08/25 00:55:48;;;;;;;9.53;8.63;;;20.70;1.00;;;;;;5042714;28;20480;-82
2022/08/25 00:58:19;;;;;;;10.67;9.57;;;20.70;1.00;;;;;;5035636;28;20453;-81
2022/08/25 01:00:49;;;;;;;10.80;9.73;;;20.60;1.00;;;;;;5037550;28;20432;-81
2022/08/25 01:03:19;;;;;;;13.00;9.53;;;20.60;1.00;;;;;;5035540;28;20537;-81
2022/08/25 01:05:46;;;;;;;11.97;10.50;;;20.50;1.00;;;;;;5039182;28;20558;-81
2022/08/25 01:08:15;;;;;;;10.00;9.00;;;20.60;1.00;;;;;;5036296;28;20521;-81
2022/08/25 01:10:44;;;;;;;10.73;9.70;;;20.60;1.00;;;;;;5035263;28;20461;-82
2022/08/25 01:13:16;;;;;;;11.30;10.20;;;20.60;1.00;;;;;;5036681;28;20580;-81
2022/08/25 01:15:44;;;;;;;10.80;9.50;;;20.60;1.00;;;;;;5037366;28;20516;-82
2022/08/25 01:18:11;;;;;;;12.17;10.00;;;20.60;1.00;;;;;;5035961;28;20875;-82
2022/08/25 01:20:40;;;;;;;11.07;9.97;;;20.60;1.00;;;;;;5035082;28;20461;-81
2022/08/25 01:23:08;;;;;;;10.03;9.20;;;20.60;1.00;;;;;;5034140;28;20501;-82
2022/08/25 01:25:45;;;;;;;12.13;10.03;;;20.60;1.00;;;;;;5036162;28;21019;-82
2022/08/25 01:28:12;;;;;;;10.00;9.10;;;20.60;1.00;;;;;;5033478;28;20525;-82
2022/08/25 01:30:40;;;;;;;11.93;10.30;;;20.60;1.00;;;;;;5008231;28;20467;-82
2022/08/25 01:33:09;;;;;;;9.57;8.67;;;20.60;1.00;;;;;;5033490;28;20988;-82
2022/08/25 01:35:36;;;;;;;10.37;9.27;;;20.50;1.00;;;;;;5033484;28;20541;-82
2022/08/25 01:38:05;;;;;;;11.20;9.30;;;20.50;1.00;;;;;;5037343;28;20465;-81
2022/08/25 01:40:36;;;;;;;11.20;10.20;;;20.50;1.00;;;;;;5033594;28;20433;-82
2022/08/25 01:43:11;;;;;;;10.93;9.83;;;20.50;1.00;;;;;;5034349;28;20429;-81
2022/08/25 01:45:43;;;;;;;11.20;9.80;;;20.50;1.00;;;;;;5035476;28;20469;-82
2022/08/25 01:48:11;;;;;;;10.30;9.20;;;20.50;1.00;;;;;;5037392;28;20493;-81
2022/08/25 01:50:39;;;;;;;10.17;9.27;;;20.40;1.00;;;;;;5033965;28;20449;-82
2022/08/25 01:53:14;;;;;;;11.60;10.30;;;20.40;1.00;;;;;;5033861;28;20445;-82
2022/08/25 01:55:51;;;;;;;11.43;9.90;;;20.40;1.00;;;;;;5022284;28;20442;-81
2022/08/25 01:58:20;;;;;;;10.57;9.47;;;20.40;1.00;;;;;;5034313;28;20507;-81
2022/08/25 02:00:47;;;;;;;11.63;9.53;;;20.30;1.00;;;;;;5030697;28;20440;-82
2022/08/25 02:03:15;;;;;;;12.77;10.20;;;20.30;1.00;;;;;;5033237;28;20453;-81
2022/08/25 02:05:42;;;;;;;11.20;9.67;;;20.30;1.00;;;;;;5035930;28;20475;-81
2022/08/25 02:08:10;;;;;;;12.33;10.83;;;20.30;1.00;;;;;;5035303;28;20453;-82
2022/08/25 02:10:38;;;;;;;13.23;10.10;;;20.30;1.00;;;;;;5034413;28;20894;-82
2022/08/25 02:13:07;;;;;;;14.23;10.80;;;20.20;1.00;;;;;;5034604;28;20489;-82
2022/08/25 02:15:39;;;;;;;12.17;10.13;;;20.20;1.00;;;;;;5033715;28;20469;-82
2022/08/25 02:18:06;;;;;;;12.20;10.13;;;20.20;1.00;;;;;;5039730;28;20475;-82
2022/08/25 02:20:33;;;;;;;14.10;11.40;;;20.20;1.00;;;;;;5035483;28;23198;-82
2022/08/25 02:23:00;;;;;;;11.73;10.50;;;20.10;1.00;;;;;;5036088;28;20453;-82
2022/08/25 02:25:27;;;;;;;13.33;11.20;;;20.10;1.00;;;;;;5037397;28;20939;-83
2022/08/25 02:27:54;;;;;;;11.63;10.60;;;20.10;1.00;;;;;;5037968;28;20457;-81
2022/08/25 02:30:22;;;;;;;12.70;11.50;;;20.10;1.00;;;;;;5036845;28;20549;-82
2022/08/25 02:32:49;;;;;;;12.93;11.60;;;20.10;1.00;;;;;;5038275;28;20461;-83
2022/08/25 02:35:17;;;;;;;12.60;11.30;;;20.10;1.00;;;;;;5039239;28;20496;-82
2022/08/25 02:37:47;;;;;;;13.47;10.90;;;20.10;1.00;;;;;;5033608;28;20489;-83
2022/08/25 02:40:14;;;;;;;14.13;11.00;;;20.10;1.00;;;;;;5035304;28;20543;-82
2022/08/25 02:42:40;;;;;;;12.83;10.53;;;20.00;1.00;;;;;;5037066;28;20468;-83
2022/08/25 02:45:08;;;;;;;12.77;10.77;;;20.00;1.00;;;;;;5037652;28;20465;-83
2022/08/25 02:47:36;;;;;;;13.20;11.80;;;20.00;1.00;;;;;;5036018;28;20430;-83
2022/08/25 02:50:04;;;;;;;15.10;11.80;;;20.00;1.00;;;;;;5036879;28;20464;-82
2022/08/25 02:52:31;;;;;;;12.97;11.70;;;20.00;1.00;;;;;;5033390;28;20558;-83
2022/08/25 02:54:57;;;;;;;13.90;12.50;;;20.00;1.00;;;;;;5033485;28;20473;-83
2022/08/25 02:57:24;;;;;;;14.70;13.20;;;19.90;1.00;;;;;;5037080;28;20472;-83
2022/08/25 02:59:52;;;;;;;13.77;12.37;;;19.90;1.00;;;;;;5035079;28;20540;-82
2022/08/25 03:02:19;;;;;;;13.87;11.70;;;19.90;1.00;;;;;;5038942;28;20906;-83
2022/08/25 03:04:47;;;;;;;13.90;12.40;;;20.00;1.00;;;;;;5038421;28;21240;-83
2022/08/25 03:07:14;;;;;;;14.37;12.20;;;19.90;1.00;;;;;;5034400;28;20875;-82
2022/08/25 03:09:41;;;;;;;18.00;12.57;;;19.90;1.00;;;;;;5036696;28;20483;-82
2022/08/25 03:12:09;;;;;;;14.70;11.77;;;19.90;1.00;;;;;;5034899;28;20489;-82
2022/08/25 03:14:40;;;;;;;13.30;12.00;;;19.90;1.00;;;;;;5036460;28;20469;-81
2022/08/25 03:17:07;;;;;;;13.93;12.47;;;19.90;1.00;;;;;;5036196;28;20446;-79
2022/08/25 03:19:35;;;;;;;13.90;12.20;;;19.90;1.00;;;;;;5034915;28;20875;-79
2022/08/25 03:22:03;;;;;;;12.90;11.00;;;19.80;1.00;;;;;;5028527;28;20460;-79
2022/08/25 03:24:30;;;;;;;13.40;12.17;;;19.90;1.00;;;;;;5031869;28;20507;-78
2022/08/25 03:26:56;;;;;;;16.70;12.27;;;19.80;1.00;;;;;;5033900;28;20496;-79
2022/08/25 03:29:24;;;;;;;12.43;11.10;;;19.80;1.00;;;;;;5031994;28;20548;-79
2022/08/25 03:31:51;;;;;;;16.83;11.90;;;19.80;1.00;;;;;;5029218;28;20288;-79
2022/08/25 03:34:19;;;;;;;13.33;12.03;;;19.80;1.00;;;;;;5032073;28;20475;-79
2022/08/25 03:36:50;;;;;;;14.10;12.63;;;19.80;1.00;;;;;;5032830;28;20474;-79
2022/08/25 03:39:23;;;;;;;17.00;13.27;;;19.80;1.00;;;;;;5033454;28;20472;-79
2022/08/25 03:41:50;;;;;;;15.37;13.63;;;19.80;1.00;;;;;;5033717;28;20512;-79
2022/08/25 03:44:19;;;;;;;16.10;13.00;;;19.80;1.00;;;;;;5032134;28;20480;-79
2022/08/25 03:46:48;;;;;;;15.23;13.50;;;19.70;1.00;;;;;;5030530;28;20584;-79
2022/08/25 03:49:19;;;;;;;17.20;12.40;;;19.70;1.00;;;;;;5030022;28;21014;-79
2022/08/25 03:51:49;;;;;;;23.70;21.33;;;19.70;1.00;;;;;;5031941;28;20511;-80
2022/08/25 03:54:19;;;;;;;18.63;14.63;;;19.70;1.00;;;;;;5035835;28;20476;-79
2022/08/25 03:56:47;;;;;;;15.87;13.77;;;19.60;1.00;;;;;;5038156;28;20471;-79
2022/08/25 03:59:14;;;;;;;19.33;14.17;;;19.60;1.00;;;;;;5037865;28;20472;-79
2022/08/25 04:01:42;;;;;;;16.27;13.60;;;19.60;1.00;;;;;;5032253;28;20736;-79
2022/08/25 04:04:11;;;;;;;17.47;12.80;;;19.60;1.00;;;;;;5031197;28;20477;-79
2022/08/25 04:06:42;;;;;;;16.00;14.47;;;19.60;1.00;;;;;;5031650;28;20504;-80
2022/08/25 04:09:09;;;;;;;15.87;14.23;;;19.60;1.00;;;;;;5034940;28;20493;-79
2022/08/25 04:11:38;;;;;;;15.87;13.50;;;19.50;1.00;;;;;;5032024;28;20455;-79
2022/08/25 04:14:05;;;;;;;20.20;14.70;;;19.50;1.00;;;;;;5026839;28;20544;-78
2022/08/25 04:16:34;;;;;;;16.33;13.47;;;19.50;1.00;;;;;;5030577;28;20499;-79
2022/08/25 04:19:03;;;;;;;15.40;13.80;;;19.50;1.00;;;;;;5034241;28;20983;-78
2022/08/25 04:21:31;;;;;;;15.57;14.20;;;19.50;1.00;;;;;;5031627;28;20918;-79
2022/08/25 04:24:07;;;;;;;18.53;16.60;;;19.50;1.00;;;;;;5035239;28;20464;-79
2022/08/25 04:26:37;;;;;;;14.67;13.27;;;19.50;1.00;;;;;;5036906;28;20452;-80
2022/08/25 04:29:08;;;;;;;16.53;14.87;;;19.50;1.00;;;;;;5037847;28;22437;-79
2022/08/25 04:31:42;;;;;;;17.83;15.93;;;19.60;1.00;;;;;;5025743;28;20449;-79
2022/08/25 04:34:10;;;;;;;17.97;15.90;;;19.60;1.00;;;;;;5035616;28;20441;-80
2022/08/25 04:36:37;;;;;;;20.30;18.27;;;19.60;1.00;;;;;;5031948;28;20925;-80
2022/08/25 04:39:04;;;;;;;19.63;17.10;;;19.50;1.00;;;;;;5036841;28;20492;-79
2022/08/25 04:41:31;;;;;;;22.50;17.20;;;19.50;1.00;;;;;;5030887;28;20529;-79
2022/08/25 04:44:01;;;;;;;19.80;18.00;;;19.50;1.00;;;;;;5038051;28;20484;-80
2022/08/25 04:46:31;;;;;;;19.43;17.50;;;19.60;1.00;;;;;;5033810;28;20465;-79
2022/08/25 04:49:02;;;;;;;19.50;17.60;;;19.60;1.00;;;;;;5037988;28;20461;-78
2022/08/25 04:51:31;;;;;;;21.00;18.70;;;19.60;1.00;;;;;;5034810;28;20469;-80
2022/08/25 04:54:00;;;;;;;21.00;18.20;;;19.70;1.00;;;;;;5033924;28;20508;-80
2022/08/25 04:56:29;;;;;;;24.50;20.17;;;19.70;1.00;;;;;;5033590;28;20553;-80
2022/08/25 04:59:01;;;;;;;25.20;20.43;;;19.80;1.00;;;;;;5035303;28;20460;-80
2022/08/25 05:01:30;;;;;;;25.50;22.70;;;19.80;1.00;;;;;;5034544;28;20857;-80
2022/08/25 05:04:00;;;;;;;31.13;22.60;;;19.90;1.00;;;;;;5036341;28;20587;-79
2022/08/25 05:06:28;;;;;;;27.00;22.87;;;20.00;1.00;;;;;;5034379;28;20895;-80
2022/08/25 05:08:56;;;;;;;22.17;19.87;;;20.00;1.00;;;;;;5037130;28;20497;-79
2022/08/25 05:11:24;;;;;;;28.20;22.70;;;20.10;1.00;;;;;;5032108;28;20473;-78
2022/08/25 05:13:53;;;;;;;23.63;20.57;;;20.10;1.00;;;;;;5032801;28;20477;-78
2022/08/25 05:16:22;;;;;;;24.47;19.00;;;20.10;1.00;;;;;;5029985;28;20465;-77
2022/08/25 05:18:51;;;;;;;23.43;20.90;;;20.20;1.00;;;;;;5032068;28;20465;-77
2022/08/25 05:21:22;;;;;;;24.43;19.50;;;20.20;1.00;;;;;;5031535;28;20465;-78
2022/08/25 05:23:50;;;;;;;23.50;20.10;;;20.20;1.00;;;;;;5031186;28;21303;-77
2022/08/25 05:26:19;;;;;;;22.97;19.37;;;20.30;1.00;;;;;;5034395;28;20461;-76
2022/08/25 05:28:46;;;;;;;21.20;17.87;;;20.30;1.00;;;;;;5028983;28;20544;-78
2022/08/25 05:31:14;;;;;;;21.23;19.00;;;20.30;1.00;;;;;;5031011;28;20456;-77
2022/08/25 05:33:42;;;;;;;22.20;18.80;;;20.30;1.00;;;;;;5031450;28;20545;-77
2022/08/25 05:36:12;;;;;;;19.70;17.63;;;20.40;1.00;;;;;;5032704;28;20470;-77
2022/08/25 05:38:40;;;;;;;19.47;17.50;;;20.50;1.00;;;;;;5032886;28;20850;-77
2022/08/25 05:41:10;;;;;;;17.43;15.53;;;20.50;1.00;;;;;;5031216;28;20473;-78
2022/08/25 05:43:38;;;;;;;19.50;16.43;;;20.50;1.00;;;;;;5032040;28;20464;-76
2022/08/25 05:46:06;;;;;;;17.77;15.83;;;20.50;1.00;;;;;;5031169;28;20556;-77
2022/08/25 05:48:34;;;;;;;20.13;18.07;;;20.60;1.00;;;;;;5028859;28;20536;-77
2022/08/25 05:51:04;;;;;;;20.30;17.40;;;20.60;1.00;;;;;;5033591;28;20443;-77
2022/08/25 05:53:32;;;;;;;19.20;17.20;;;20.60;1.00;;;;;;5033353;28;20827;-78
2022/08/25 05:56:00;;;;;;;19.47;16.93;;;20.60;1.00;;;;;;5033230;28;20446;-77
2022/08/25 05:58:28;;;;;;;18.00;16.20;;;20.70;1.00;;;;;;5030915;28;20467;-78
2022/08/25 06:00:55;;;;;;;20.40;17.90;;;20.70;1.00;;;;;;5031919;28;20461;-78
2022/08/25 06:03:22;;;;;;;23.30;17.87;;;20.70;1.00;;;;;;5031071;28;20878;-78
2022/08/25 06:05:49;;;;;;;20.37;18.33;;;20.70;1.00;;;;;;5031934;28;21062;-77
2022/08/25 06:08:18;;;;;;;21.03;18.60;;;20.70;1.00;;;;;;5031869;28;20939;-78
2022/08/25 06:10:52;;;;;;;19.53;17.47;;;20.80;1.00;;;;;;5031831;28;20549;-77
2022/08/25 06:13:19;;;;;;;25.20;19.77;;;20.70;1.00;;;;;;5032231;28;20979;-79
2022/08/25 06:15:46;;;;;;;19.80;17.70;;;20.80;1.00;;;;;;5035645;28;20465;-78
2022/08/25 06:18:13;;;;;;;21.57;18.10;;;20.80;1.00;;;;;;5032060;28;20448;-78
2022/08/25 06:20:40;;;;;;;19.87;17.80;;;20.90;1.00;;;;;;5032219;28;20474;-78
2022/08/25 06:23:08;;;;;;;21.00;18.17;;;20.90;1.00;;;;;;5034408;28;20561;-78
2022/08/25 06:25:34;;;;;;;19.67;17.57;;;21.00;1.00;;;;;;5035234;28;20457;-78
2022/08/25 06:28:03;;;;;;;18.30;16.50;;;21.00;1.00;;;;;;5032953;28;20430;-79
2022/08/25 06:30:31;;;;;;;20.63;18.43;;;21.00;1.00;;;;;;5033774;28;20433;-78
2022/08/25 06:32:58;;;;;;;20.13;17.73;;;21.10;1.00;;;;;;5034942;28;20861;-77
2022/08/25 06:35:26;;;;;;;21.40;18.07;;;21.10;1.00;;;;;;5031847;28;20893;-78
2022/08/25 06:37:54;;;;;;;26.03;22.67;;;21.20;1.00;;;;;;5034995;28;20461;-77
2022/08/25 06:40:21;;;;;;;20.23;18.13;;;21.30;1.00;;;;;;5032229;28;20422;-78
2022/08/25 06:42:48;;;;;;;22.60;18.80;;;21.30;1.00;;;;;;5034884;28;20501;-78
2022/08/25 06:45:17;;;;;;;18.43;16.40;;;21.40;1.00;;;;;;5030754;28;20479;-77
2022/08/25 06:47:45;;;;;;;19.50;16.70;;;21.60;1.00;;;;;;5034921;28;20457;-77
2022/08/25 06:50:12;;;;;;;21.83;18.17;;;21.60;1.00;;;;;;5034121;28;20464;-77
2022/08/25 06:52:39;;;;;;;22.10;17.17;;;21.70;1.00;;;;;;5032690;28;20469;-77
2022/08/25 06:55:06;;;;;;;20.83;18.60;;;21.80;1.00;;;;;;5031565;28;20520;-77
2022/08/25 06:57:34;;;;;;;21.77;15.97;;;21.80;1.00;;;;;;5035922;28;20543;-77
2022/08/25 07:00:01;;;;;;;18.40;16.60;;;21.80;1.00;;;;;;5036269;28;20515;-77
2022/08/25 07:02:29;;;;;;;19.17;17.07;;;21.80;1.00;;;;;;5030901;28;20552;-78
2022/08/25 07:04:56;;;;;;;23.30;18.50;;;21.90;1.00;;;;;;5035669;28;20946;-78
2022/08/25 07:07:23;;;;;;;17.30;15.50;;;21.90;1.00;;;;;;5035773;28;20984;-77
2022/08/25 07:09:50;;;;;;;17.13;15.40;;;22.00;1.00;;;;;;5033435;28;20508;-77
2022/08/25 07:12:17;;;;;;;21.30;17.60;;;22.10;1.00;;;;;;5031956;28;20484;-77
2022/08/25 07:14:44;;;;;;;19.10;17.20;;;22.10;1.00;;;;;;5031747;28;20552;-76
2022/08/25 07:17:10;;;;;;;20.50;17.90;;;22.10;1.00;;;;;;5030234;28;20489;-76
2022/08/25 07:19:39;;;;;;;19.40;17.40;;;22.20;1.00;;;;;;5028830;28;20525;-77
2022/08/25 07:22:06;;;;;;;22.00;18.70;;;22.30;1.00;;;;;;5032980;28;20839;-77
2022/08/25 07:24:32;;;;;;;19.87;17.73;;;22.40;1.00;;;;;;5031827;28;20552;-77
2022/08/25 07:27:00;;;;;;;18.73;16.53;;;22.50;1.00;;;;;;5029168;28;20971;-76
2022/08/25 07:29:28;;;;;;;22.70;17.33;;;22.60;1.00;;;;;;5028737;28;20481;-76
2022/08/25 07:31:55;;;;;;;21.60;18.07;;;22.80;1.00;;;;;;5032130;28;20508;-77
2022/08/25 07:37:08;;;;;;;22.00;18.83;;;22.90;1.00;;;;;;5029693;28;20457;-77
2022/08/25 07:39:36;;;;;;;23.47;19.40;;;23.10;1.00;;;;;;5031394;28;20931;-77
2022/08/25 07:42:12;;;;;;;22.60;19.60;;;23.00;1.00;;;;;;5038131;28;20473;-76
2022/08/25 07:44:40;;;;;;;24.77;19.20;;;23.10;1.00;;;;;;5034582;28;20497;-77
2022/08/25 07:47:10;;;;;;;22.00;19.20;;;23.20;1.00;;;;;;5029618;28;20476;-77
2022/08/25 07:49:39;;;;;;;21.77;19.13;;;23.30;1.00;;;;;;5016381;28;20520;-78
2022/08/25 07:52:08;;;;;;;25.30;19.13;;;23.50;1.00;;;;;;5030182;28;21091;-77
2022/08/25 07:54:35;;;;;;;22.87;19.77;;;23.70;1.00;;;;;;5029068;28;20484;-77
2022/08/25 07:57:12;;;;;;;23.20;20.13;;;23.90;1.00;;;;;;5034253;28;20409;-77
2022/08/25 07:59:41;;;;;;;23.53;19.97;;;24.00;1.00;;;;;;5036337;28;20456;-77
2022/08/25 08:02:10;;;;;;;23.30;19.47;;;24.20;1.00;;;;;;5032269;28;20989;-77
2022/08/25 08:04:37;;;;;;;23.87;19.43;;;24.20;1.00;;;;;;5031378;28;20917;-77
2022/08/25 08:07:05;;;;;;;19.53;17.43;;;24.30;1.00;;;;;;5027078;28;20515;-77
2022/08/25 08:09:33;;;;;;;18.17;16.37;;;24.40;1.00;;;;;;5031645;28;20469;-77
2022/08/25 08:12:00;;;;;;;19.73;17.60;;;24.40;1.00;;;;;;5029775;28;20475;-77
2022/08/25 08:14:27;;;;;;;20.13;17.90;;;24.50;1.00;;;;;;5028829;28;20452;-77
2022/08/25 08:16:54;;;;;;;24.10;19.33;;;24.80;1.00;;;;;;5031427;28;20465;-77
2022/08/25 08:19:21;;;;;;;23.77;20.30;;;25.00;1.00;;;;;;5031937;28;20429;-77
2022/08/25 08:21:49;;;;;;;21.07;17.50;;;25.20;1.00;;;;;;5029930;28;20991;-77
2022/08/25 08:24:16;;;;;;;21.00;18.53;;;25.40;1.00;;;;;;5032632;28;20559;-77
2022/08/25 08:26:44;;;;;;;21.23;18.43;;;25.50;1.00;;;;;;5031888;28;20469;-77
2022/08/25 08:29:11;;;;;;;19.37;16.80;;;25.60;1.00;;;;;;5033060;28;20469;-78
2022/08/25 08:31:38;;;;;;;19.57;16.23;;;25.70;1.00;;;;;;5034990;28;20465;-77
2022/08/25 08:34:06;;;;;;;19.27;16.10;;;25.70;1.00;;;;;;5031677;28;20852;-77
2022/08/25 08:36:33;;;;;;;25.60;18.20;;;25.80;1.00;;;;;;5034873;28;20464;-77
2022/08/25 08:39:00;;;;;;;24.47;16.77;;;25.80;1.00;;;;;;5034095;28;20465;-78
2022/08/25 08:44:44;;;;;;;17.70;15.90;;;25.80;1.00;;;;;;5037006;28;20441;-76
2022/08/25 08:47:20;;;;;;;17.27;15.57;;;25.90;1.00;;;;;;5036703;28;20570;-76
2022/08/25 08:49:56;;;;;;;18.63;15.73;;;26.20;1.00;;;;;;5035681;28;20553;-77
2022/08/25 08:52:40;;;;;;;17.83;15.90;;;26.60;1.00;;;;;;5033083;28;20479;-77
2022/08/25 08:55:23;;;;;;;17.60;14.80;;;27.00;1.00;;;;;;5034323;28;20460;-76
2022/08/25 08:57:55;;;;;;;15.97;12.70;;;27.20;1.00;;;;;;5031144;28;20464;-78
2022/08/25 09:00:22;;;;;;;15.03;13.53;;;27.00;1.00;;;;;;5035199;28;20461;-77
2022/08/25 09:02:53;;;;;;;14.10;12.40;;;26.80;1.00;;;;;;5033526;28;20511;-77
2022/08/25 09:05:24;;;;;;;17.80;14.17;;;26.70;1.00;;;;;;5032566;28;20457;-76
2022/08/25 09:07:56;;;;;;;15.17;13.63;;;26.70;1.00;;;;;;5036467;28;20449;-77
2022/08/25 09:10:25;;;;;;;15.60;14.10;;;26.70;1.00;;;;;;5036342;28;20475;-76
2022/08/25 09:13:02;;;;;;;15.00;13.40;;;26.60;1.00;;;;;;5032426;28;20476;-76
2022/08/25 09:18:31;;;;;;;11.57;10.47;;;27.10;1.00;;;;;;5033372;28;20804;-77
2022/08/25 09:21:10;;;;;;;12.53;11.43;;;27.60;1.00;;;;;;5033079;28;20541;-77
2022/08/25 09:23:50;;;;;;;15.67;13.30;;;27.80;1.00;;;;;;5035297;28;20465;-77
2022/08/25 09:26:29;;;;;;;13.47;12.07;;;27.80;1.00;;;;;;5030545;28;20463;-77
2022/08/25 09:29:02;;;;;;;13.47;12.07;;;27.40;1.00;;;;;;5028429;28;20519;-78
2022/08/25 09:31:34;;;;;;;13.23;12.03;;;27.20;1.00;;;;;;5034410;28;20454;-77
2022/08/25 09:34:06;;;;;;;14.93;12.30;;;27.10;1.00;;;;;;5034729;28;20523;-77
2022/08/25 09:36:34;;;;;;;14.30;12.90;;;27.10;1.00;;;;;;5028996;28;20454;-77
2022/08/25 09:39:01;;;;;;;12.40;11.20;;;27.40;1.00;;;;;;5033653;28;20466;-77
2022/08/25 09:41:48;;;;;;;12.33;11.07;;;27.70;1.00;;;;;;5034819;28;20421;-77
2022/08/25 09:44:25;;;;;;;12.40;11.20;;;28.20;1.00;;;;;;5032114;28;21054;-77
2022/08/25 09:47:00;;;;;;;13.40;12.10;;;28.20;1.00;;;;;;5029369;28;20536;-77
2022/08/25 09:49:39;;;;;;;13.60;12.20;;;28.00;1.00;;;;;;5034334;28;21034;-77
2022/08/25 09:52:31;;;;;;;12.53;11.23;;;28.00;1.00;;;;;;5034524;28;20468;-77
2022/08/25 09:55:01;;;;;;;13.60;12.20;;;28.50;1.00;;;;;;5031495;28;20477;-77
2022/08/25 09:57:31;;;;;;;12.10;10.90;;;28.70;1.00;;;;;;5032534;28;20547;-84
2022/08/25 10:00:14;;;;;;;11.10;10.10;;;28.90;1.00;;;;;;5036960;28;20489;-85
2022/08/25 10:02:42;;;;;;;13.67;10.97;;;29.50;1.00;;;;;;5035956;28;21103;-85
2022/08/25 10:05:21;;;;;;;10.83;9.63;;;30.90;1.00;;;;;;5037279;28;20434;-85
2022/08/25 10:07:52;;;;;;;11.00;10.00;;;31.80;1.00;;;;;;5036940;28;20433;-84
2022/08/25 10:10:25;;;;;;;12.17;10.00;;;31.70;1.00;;;;;;5034714;28;20477;-84
2022/08/25 10:12:53;;;;;;;12.30;11.17;;;31.60;1.00;;;;;;5037082;28;20503;-85
2022/08/25 10:15:25;;;;;;;10.57;9.10;;;31.90;1.00;;;;;;5036741;28;20504;-80
2022/08/25 10:17:51;;;;;;;11.50;10.30;;;32.50;1.00;;;;;;5034613;28;20444;-85
2022/08/25 10:20:21;;;;;;;10.80;9.43;;;33.50;1.00;;;;;;5038882;28;20565;-85
2022/08/25 10:22:49;;;;;;;10.07;8.97;;;34.40;1.00;;;;;;5035758;28;20406;-83
2022/08/25 10:25:20;;;;;;;13.10;9.10;;;35.00;1.00;;;;;;5038484;28;20483;-84
2022/08/25 10:27:53;;;;;;;12.23;8.27;;;35.10;1.00;;;;;;5037284;28;21211;-84
2022/08/25 10:30:27;;;;;;;9.70;8.70;;;34.70;1.00;;;;;;5037011;28;20871;-83
2022/08/25 10:33:12;;;;;;;11.87;8.60;;;34.70;1.00;;;;;;5037755;28;21278;-82
2022/08/25 10:35:52;;;;;;;9.90;8.90;;;34.10;1.00;;;;;;5044518;28;20425;-84
2022/08/25 10:38:35;;;;;;;10.33;8.27;;;34.00;1.00;;;;;;5037389;28;20446;-83
2022/08/25 10:41:18;;;;;;;9.63;8.63;;;34.30;1.00;;;;;;5040131;28;20433;-84
2022/08/25 10:43:53;;;;;;;12.27;8.67;;;33.40;1.00;;;;;;5035388;28;20439;-84
2022/08/25 10:46:46;;;;;;;10.97;8.47;;;32.40;1.00;;;;;;5045602;28;20449;-82
2022/08/25 10:49:27;;;;;;;10.27;8.70;;;32.10;1.00;;;;;;5037071;28;20451;-85
2022/08/25 10:52:01;;;;;;;11.07;8.30;;;33.30;1.00;;;;;;5029214;28;20462;-85
2022/08/25 10:54:42;;;;;;;9.53;7.90;;;35.00;1.00;;;;;;5040953;28;20493;-84
2022/08/25 10:57:18;;;;;;;11.80;8.83;;;36.40;1.00;;;;;;5013855;28;20468;-85
2022/08/25 10:59:55;;;;;;;12.87;8.53;;;36.80;1.00;;;;;;5033880;28;20452;-84
2022/08/25 11:03:01;;;;;;;13.13;7.90;;;35.90;1.00;;;;;;5033659;28;20464;-84
2022/08/25 11:05:35;;;;;;;10.70;7.87;;;34.60;1.00;;;;;;5031918;28;20465;-85
2022/08/25 11:08:10;;;;;;;12.13;8.53;;;34.60;1.00;;;;;;5025119;28;20469;-85
2022/08/25 11:10:45;;;;;;;11.57;8.37;;;34.30;1.00;;;;;;5039830;28;20445;-83
2022/08/25 11:13:24;;;;;;;12.70;8.80;;;34.50;1.00;;;;;;5034110;28;20449;-87
2022/08/25 11:15:55;;;;;;;13.60;8.77;;;35.10;1.00;;;;;;5040444;28;20839;-84
2022/08/25 11:18:28;;;;;;;12.23;8.10;;;35.10;1.00;;;;;;5035642;28;21255;-85
2022/08/25 11:21:05;;;;;;;13.20;8.40;;;35.10;1.00;;;;;;5034121;28;20457;-86
2022/08/25 11:23:37;;;;;;;14.80;8.47;;;34.80;1.00;;;;;;5032980;28;21014;-86
2022/08/25 11:26:10;;;;;;;13.90;8.43;;;35.00;1.00;;;;;;5037153;28;20461;-84
2022/08/25 11:28:49;;;;;;;14.20;8.47;;;34.30;1.00;;;;;;5034321;28;20468;-84
2022/08/25 11:31:18;;;;;;;15.40;7.90;;;34.10;1.00;;;;;;5036224;28;20477;-83
2022/08/25 11:33:45;;;;;;;17.63;8.53;;;34.50;1.00;;;;;;5038321;28;20559;-84
2022/08/25 11:36:28;;;;;;;11.67;7.80;;;34.90;1.00;;;;;;5035373;28;20421;-85
2022/08/25 11:39:08;;;;;;;13.93;8.50;;;34.60;1.00;;;;;;5036004;28;21022;-83
2022/08/25 11:41:49;;;;;;;17.10;8.70;;;35.20;1.00;;;;;;5028916;28;20477;-83
2022/08/25 11:44:39;;;;;;;10.97;7.97;;;34.70;1.00;;;;;;5033695;28;20980;-84
2022/08/25 11:47:32;;;;;;;11.63;8.33;;;34.10;1.00;;;;;;5035281;28;20913;-82
2022/08/25 11:50:02;;;;;;;13.23;7.80;;;33.60;1.00;;;;;;5038137;28;20902;-83
2022/08/25 11:52:48;;;;;;;14.20;7.00;;;34.50;1.00;;;;;;5032993;28;20469;-85
2022/08/25 11:55:19;;;;;;;14.60;8.23;;;34.40;1.00;;;;;;5035143;28;20421;-84
2022/08/25 11:57:48;;;;;;;12.20;7.83;;;33.70;1.00;;;;;;5036591;28;20457;-84
2022/08/25 12:00:37;;;;;;;10.73;8.17;;;33.00;1.00;;;;;;5037999;28;20516;-86
2022/08/25 12:03:44;;;;;;;11.80;8.50;;;32.90;1.00;;;;;;5032665;28;20445;-85
2022/08/25 12:06:20;;;;;;;15.83;9.60;;;34.00;1.00;;;;;;5036875;28;20542;-83
2022/08/25 12:08:53;;;;;;;14.07;10.40;;;33.30;1.00;;;;;;5035524;28;20453;-83
2022/08/25 12:11:46;;;;;;;14.00;9.63;;;33.00;1.00;;;;;;5036016;28;20454;-82
2022/08/25 12:14:33;;;;;;;10.77;8.43;;;34.70;1.00;;;;;;5038054;28;20910;-85
2022/08/25 12:17:25;;;;;;;16.00;8.77;;;36.90;1.00;;;;;;5039878;28;20465;-83
2022/08/25 12:20:09;;;;;;;13.33;8.53;;;38.70;1.00;;;;;;5045580;28;20461;-85
2022/08/25 12:23:04;;;;;;;14.77;8.17;;;39.90;1.00;;;;;;5045902;28;20430;-84
2022/08/25 12:25:53;;;;;;;14.50;8.80;;;40.50;1.00;;;;;;5046346;28;20492;-84
2022/08/25 12:28:49;;;;;;;10.70;7.00;;;41.00;1.00;;;;;;5040119;28;20457;-83
2022/08/25 12:31:30;;;;;;;13.03;6.83;;;40.70;1.00;;;;;;5042056;28;20532;-83
2022/08/25 12:34:40;;;;;;;12.90;8.17;;;41.30;1.00;;;;;;5048595;28;20424;-86
2022/08/25 12:37:16;;;;;;;13.40;7.40;;;41.40;1.00;;;;;;5037325;28;21176;-85
2022/08/25 12:39:46;;;;;;;14.00;8.27;;;39.90;1.00;;;;;;5042255;28;20429;-85
2022/08/25 12:42:24;;;;;;;12.10;7.13;;;38.20;1.00;;;;;;5037505;28;20417;-86
2022/08/25 12:45:13;;;;;;;13.53;9.30;;;36.70;1.00;;;;;;5044376;28;20457;-83
2022/08/25 12:47:43;;;;;;;12.47;7.60;;;35.70;1.00;;;;;;5043898;28;20405;-84
2022/08/25 12:50:36;;;;;;;13.10;7.23;;;35.80;1.00;;;;;;5048003;28;20540;-83
2022/08/25 12:53:12;;;;;;;15.60;7.27;;;37.10;1.00;;;;;;5044485;28;20409;-85
2022/08/25 12:55:44;;;;;;;14.53;7.60;;;36.80;1.00;;;;;;5043192;28;20523;-84
2022/08/25 12:58:51;;;;;;;10.13;6.33;;;37.20;1.00;;;;;;5037576;28;20440;-85
2022/08/25 13:01:35;;;;;;;11.40;7.43;;;38.90;1.00;;;;;;5042449;28;20434;-84
2022/08/25 13:04:41;;;;;;;14.70;8.30;;;40.10;1.00;;;;;;5059451;28;20442;-83
2022/08/25 13:07:28;;;;;;;14.00;7.30;;;41.50;1.00;;;;;;5044009;28;20493;-85
2022/08/25 13:10:23;;;;;;;11.20;7.10;;;42.90;1.00;;;;;;5052485;28;20456;-85
2022/08/25 13:12:58;;;;;;;15.57;7.70;;;43.90;1.00;;;;;;5053297;28;20426;-84
2022/08/25 13:15:36;;;;;;;14.43;8.00;;;44.90;1.00;;;;;;5048283;28;20532;-83